Time;durP1;ratioP1;P1;durP2;ratioP2;P2;SDS_P1;SDS_P2;PMS_P1;PMS_P2;Temp;Humidity;BMP_temperature;BMP_pressure;BME280_temperature;BME280_humidity;BME280_pressure;Samples;Min_cycle;Max_cycle;Signal;HPM_P1;HPM_P2
2024/01/22 00:02:09;;;;;;;;;;;;;;;;;;5093112;28;19924;-72
2024/01/22 00:04:35;;;;;;;;;;;;;;;;;;5075398;28;20272;-72
2024/01/22 00:07:01;;;;;;;;;;;;;;;;;;5093581;28;20315;-72
2024/01/22 00:09:27;;;;;;;;;;;;;;;;;;5093118;28;20265;-72
2024/01/22 00:11:53;;;;;;;;;;;;;;;;;;5093599;28;19915;-73
2024/01/22 00:14:19;;;;;;;;;;;;;;;;;;5093521;28;19995;-73
2024/01/22 00:16:45;;;;;;;;;;;;;;;;;;5093072;28;19947;-72
2024/01/22 00:19:11;;;;;;;;;;;;;;;;;;5096680;28;19915;-72
2024/01/22 00:21:37;;;;;;;;;;;;;;;;;;5097334;28;19908;-72
2024/01/22 00:24:03;;;;;;;;;;;;;;;;;;5096629;28;19916;-72
2024/01/22 00:26:29;;;;;;;;;;;;;;;;;;5079001;28;20400;-72
2024/01/22 00:28:55;;;;;;;;;;;;;;;;;;5097081;28;20260;-72
2024/01/22 00:31:21;;;;;;;;;;;;;;;;;;5096657;28;19912;-72
2024/01/22 00:33:47;;;;;;;;;;;;;;;;;;5097010;28;19908;-72
2024/01/22 00:36:13;;;;;;;;;;;;;;;;;;5078303;28;19908;-73
2024/01/22 00:38:39;;;;;;;;;;;;;;;;;;5097192;28;19953;-73
2024/01/22 00:41:05;;;;;;;;;;;;;;;;;;5096854;28;20284;-72
2024/01/22 00:43:31;;;;;;;;;;;;;;;;;;5096281;28;19908;-72
2024/01/22 00:45:57;;;;;;;;;;;;;;;;;;5078621;28;19914;-73
2024/01/22 00:48:23;;;;;;;;;;;;;;;;;;5096863;28;19908;-72
2024/01/22 00:50:49;;;;;;;;;;;;;;;;;;5096280;28;19922;-73
2024/01/22 00:53:15;;;;;;;;;;;;;;;;;;5096601;28;19912;-72
2024/01/22 00:55:41;;;;;;;;;;;;;;;;;;5096551;28;20265;-72
2024/01/22 00:58:07;;;;;;;;;;;;;;;;;;5096131;28;19961;-72
2024/01/22 01:00:33;;;;;;;;;;;;;;;;;;5096549;28;19908;-72
2024/01/22 01:02:58;;;;;;;;;;;;;;;;;;5096312;28;19920;-72
2024/01/22 01:05:24;;;;;;;;;;;;;;;;;;5095961;28;20381;-72
2024/01/22 01:07:50;;;;;;;;;;;;;;;;;;5096294;28;19908;-72
2024/01/22 01:10:16;;;;;;;;;;;;;;;;;;5096367;28;19915;-72
2024/01/22 01:12:42;;;;;;;;;;;;;;;;;;5095813;28;19908;-72
2024/01/22 01:15:08;;;;;;;;;;;;;;;;;;5096656;28;19930;-72
2024/01/22 01:17:34;;;;;;;;;;;;;;;;;;5096181;28;19919;-72
2024/01/22 01:20:00;;;;;;;;;;;;;;;;;;5095659;28;20271;-72
2024/01/22 01:22:26;;;;;;;;;;;;;;;;;;5096054;28;19908;-72
2024/01/22 01:24:52;;;;;;;;;;;;;;;;;;5095950;28;19916;-72
2024/01/22 01:27:18;;;;;;;;;;;;;;;;;;5095509;28;19941;-72
2024/01/22 01:29:44;;;;;;;;;;;;;;;;;;5095433;28;19912;-72
2024/01/22 01:32:10;;;;;;;;;;;;;;;;;;5096211;28;19908;-72
2024/01/22 01:34:36;;;;;;;;;;;;;;;;;;5095465;28;19908;-72
2024/01/22 01:37:02;;;;;;;;;;;;;;;;;;5095762;28;19908;-72
2024/01/22 01:39:28;;;;;;;;;;;;;;;;;;5095350;28;20366;-72
2024/01/22 01:41:54;;;;;;;;;;;;;;;;;;5095708;28;20326;-72
2024/01/22 01:44:19;;;;;;;;;;;;;;;;;;5095612;28;20422;-72
2024/01/22 01:46:45;;;;;;;;;;;;;;;;;;5077021;28;20010;-72
2024/01/22 01:49:11;;;;;;;;;;;;;;;;;;5077342;28;19908;-72
2024/01/22 01:51:37;;;;;;;;;;;;;;;;;;5095453;28;20363;-72
2024/01/22 01:54:03;;;;;;;;;;;;;;;;;;5095091;28;19915;-72
2024/01/22 01:56:29;;;;;;;;;;;;;;;;;;5095377;28;19912;-72
2024/01/22 01:58:55;;;;;;;;;;;;;;;;;;5095328;28;19909;-72
2024/01/22 02:01:21;;;;;;;;;;;;;;;;;;5076574;28;19946;-72
2024/01/22 02:03:47;;;;;;;;;;;;;;;;;;5095614;28;20014;-72
2024/01/22 02:06:13;;;;;;;;;;;;;;;;;;5095178;28;19909;-72
2024/01/22 02:08:39;;;;;;;;;;;;;;;;;;5094925;28;19961;-72
2024/01/22 02:11:05;;;;;;;;;;;;;;;;;;5095119;28;19935;-72
2024/01/22 02:13:31;;;;;;;;;;;;;;;;;;5076875;28;19915;-72
2024/01/22 02:15:57;;;;;;;;;;;;;;;;;;5094623;28;19908;-72
2024/01/22 02:18:23;;;;;;;;;;;;;;;;;;5076837;28;19960;-72
2024/01/22 02:20:49;;;;;;;;;;;;;;;;;;5095031;28;19908;-72
2024/01/22 02:23:15;;;;;;;;;;;;;;;;;;5094461;28;19908;-72
2024/01/22 02:25:41;;;;;;;;;;;;;;;;;;5094830;28;20363;-72
2024/01/22 02:28:07;;;;;;;;;;;;;;;;;;5094876;28;20000;-72
2024/01/22 02:30:33;;;;;;;;;;;;;;;;;;5094396;28;19909;-72
2024/01/22 02:32:59;;;;;;;;;;;;;;;;;;5094634;28;20325;-72
2024/01/22 02:35:25;;;;;;;;;;;;;;;;;;5094657;28;19916;-72
2024/01/22 02:37:51;;;;;;;;;;;;;;;;;;5094238;28;19908;-73
2024/01/22 02:40:17;;;;;;;;;;;;;;;;;;5094567;28;19962;-72
2024/01/22 02:42:43;;;;;;;;;;;;;;;;;;5093340;28;19951;-72
2024/01/22 02:45:09;;;;;;;;;;;;;;;;;;5094938;28;19916;-72
2024/01/22 02:47:35;;;;;;;;;;;;;;;;;;5094478;28;19912;-72
2024/01/22 02:50:01;;;;;;;;;;;;;;;;;;5094101;28;19908;-72
2024/01/22 02:52:27;;;;;;;;;;;;;;;;;;5094494;28;19908;-72
2024/01/22 02:54:53;;;;;;;;;;;;;;;;;;5094526;28;19914;-72
2024/01/22 02:57:19;;;;;;;;;;;;;;;;;;5093918;28;19912;-71
2024/01/22 02:59:45;;;;;;;;;;;;;;;;;;5094564;28;19908;-72
2024/01/22 03:02:11;;;;;;;;;;;;;;;;;;5094012;28;19920;-72
2024/01/22 03:04:37;;;;;;;;;;;;;;;;;;5075593;28;19943;-72
2024/01/22 03:07:03;;;;;;;;;;;;;;;;;;5094153;28;19943;-73
2024/01/22 03:09:29;;;;;;;;;;;;;;;;;;5094193;28;19916;-72
2024/01/22 03:11:55;;;;;;;;;;;;;;;;;;5093738;28;19908;-72
2024/01/22 03:14:21;;;;;;;;;;;;;;;;;;5076040;28;19954;-73
2024/01/22 03:16:47;;;;;;;;;;;;;;;;;;5094067;28;19912;-72
2024/01/22 03:19:13;;;;;;;;;;;;;;;;;;5075422;28;19958;-72
2024/01/22 03:21:39;;;;;;;;;;;;;;;;;;5094215;28;19908;-72
2024/01/22 03:24:05;;;;;;;;;;;;;;;;;;5093929;28;19916;-72
2024/01/22 03:26:31;;;;;;;;;;;;;;;;;;5093611;28;19908;-72
2024/01/22 03:28:57;;;;;;;;;;;;;;;;;;5093964;28;19909;-72
2024/01/22 03:31:23;;;;;;;;;;;;;;;;;;5094158;28;19915;-72
2024/01/22 03:33:49;;;;;;;;;;;;;;;;;;5093571;28;19909;-72
2024/01/22 03:36:15;;;;;;;;;;;;;;;;;;5093789;28;19930;-72
2024/01/22 03:38:41;;;;;;;;;;;;;;;;;;5094414;28;19908;-72
2024/01/22 03:41:07;;;;;;;;;;;;;;;;;;5093464;28;19908;-73
2024/01/22 03:43:33;;;;;;;;;;;;;;;;;;5093737;28;19995;-73
2024/01/22 03:45:59;;;;;;;;;;;;;;;;;;5093363;28;19915;-73
2024/01/22 03:48:25;;;;;;;;;;;;;;;;;;5094027;28;19912;-72
2024/01/22 03:50:51;;;;;;;;;;;;;;;;;;5093651;28;20419;-72
2024/01/22 03:53:17;;;;;;;;;;;;;;;;;;5077151;28;19916;-73
2024/01/22 03:55:43;;;;;;;;;;;;;;;;;;5097701;28;19918;-73
2024/01/22 03:58:09;;;;;;;;;;;;;;;;;;5097988;28;20280;-73
2024/01/22 04:00:34;;;;;;;;;;;;;;;;;;5097192;28;20321;-73
2024/01/22 04:03:00;;;;;;;;;;;;;;;;;;5097451;28;19927;-73
2024/01/22 04:05:26;;;;;;;;;;;;;;;;;;5097492;28;20015;-74
2024/01/22 04:07:52;;;;;;;;;;;;;;;;;;5097154;28;19975;-72
2024/01/22 04:10:18;;;;;;;;;;;;;;;;;;5097731;28;20321;-73
2024/01/22 04:12:44;;;;;;;;;;;;;;;;;;5097424;28;20334;-74
2024/01/22 04:15:10;;;;;;;;;;;;;;;;;;5097042;28;19970;-72
2024/01/22 04:17:36;;;;;;;;;;;;;;;;;;5097562;28;19988;-72
2024/01/22 04:20:03;;;;;;;;;;;;;;;;;;5097261;28;19908;-72
2024/01/22 04:22:29;;;;;;;;;;;;;;;;;;5096825;28;19935;-71
2024/01/22 04:24:55;;;;;;;;;;;;;;;;;;5097440;28;19920;-72
2024/01/22 04:27:21;;;;;;;;;;;;;;;;;;5078971;28;19961;-72
2024/01/22 04:29:47;;;;;;;;;;;;;;;;;;5096840;28;20364;-72
2024/01/22 04:32:13;;;;;;;;;;;;;;;;;;5097036;28;19908;-72
2024/01/22 04:34:39;;;;;;;;;;;;;;;;;;5079111;28;19908;-73
2024/01/22 04:37:05;;;;;;;;;;;;;;;;;;5096580;28;19915;-73
2024/01/22 04:39:31;;;;;;;;;;;;;;;;;;5096943;28;19908;-72
2024/01/22 04:41:57;;;;;;;;;;;;;;;;;;5097056;28;19917;-73
2024/01/22 04:44:23;;;;;;;;;;;;;;;;;;5096359;28;20005;-72
2024/01/22 04:46:49;;;;;;;;;;;;;;;;;;5096863;28;19908;-73
2024/01/22 04:49:15;;;;;;;;;;;;;;;;;;5096477;28;19908;-73
2024/01/22 04:51:42;;;;;;;;;;;;;;;;;;5096696;28;19912;-74
2024/01/22 04:54:08;;;;;;;;;;;;;;;;;;5096727;28;19977;-73
2024/01/22 04:56:34;;;;;;;;;;;;;;;;;;5096281;28;19917;-72
2024/01/22 04:59:00;;;;;;;;;;;;;;;;;;5096549;28;20386;-73
2024/01/22 05:01:26;;;;;;;;;;;;;;;;;;5096232;28;19997;-72
2024/01/22 05:03:52;;;;;;;;;;;;;;;;;;5095396;28;19912;-73
2024/01/22 05:06:18;;;;;;;;;;;;;;;;;;5096034;28;19935;-72
2024/01/22 05:08:44;;;;;;;;;;;;;;;;;;5078247;28;19960;-73
2024/01/22 05:11:10;;;;;;;;;;;;;;;;;;5096006;28;19977;-73
2024/01/22 05:13:36;;;;;;;;;;;;;;;;;;5096302;28;20289;-73
2024/01/22 05:16:02;;;;;;;;;;;;;;;;;;5095509;28;20371;-73
2024/01/22 05:18:28;;;;;;;;;;;;;;;;;;5075566;28;20295;-72
2024/01/22 05:20:54;;;;;;;;;;;;;;;;;;5094029;28;19915;-73
2024/01/22 05:23:20;;;;;;;;;;;;;;;;;;5093972;28;19916;-73
2024/01/22 05:25:46;;;;;;;;;;;;;;;;;;5093454;28;19958;-73
2024/01/22 05:28:12;;;;;;;;;;;;;;;;;;5075686;28;19908;-73
2024/01/22 05:30:38;;;;;;;;;;;;;;;;;;5094083;28;19908;-72
2024/01/22 05:33:04;;;;;;;;;;;;;;;;;;5093468;28;19943;-73
2024/01/22 05:35:30;;;;;;;;;;;;;;;;;;5075683;28;20352;-73
2024/01/22 05:37:56;;;;;;;;;;;;;;;;;;5093928;28;19995;-73
2024/01/22 05:40:22;;;;;;;;;;;;;;;;;;5093490;28;19908;-72
2024/01/22 05:42:48;;;;;;;;;;;;;;;;;;5094510;28;19908;-72
2024/01/22 05:45:14;;;;;;;;;;;;;;;;;;5095514;28;19931;-72
2024/01/22 05:47:40;;;;;;;;;;;;;;;;;;5093684;28;19912;-72
2024/01/22 05:50:06;;;;;;;;;;;;;;;;;;5078111;28;19908;-72
2024/01/22 05:52:32;;;;;;;;;;;;;;;;;;5095473;28;19908;-73
2024/01/22 05:54:58;;;;;;;;;;;;;;;;;;5094311;28;19908;-72
2024/01/22 05:57:23;;;;;;;;;;;;;;;;;;5095246;28;19914;-72
2024/01/22 05:59:49;;;;;;;;;;;;;;;;;;5094875;28;19908;-71
2024/01/22 06:02:15;;;;;;;;;;;;;;;;;;5095078;28;19920;-71
2024/01/22 06:04:41;;;;;;;;;;;;;;;;;;5095104;28;19916;-72
2024/01/22 06:07:07;;;;;;;;;;;;;;;;;;5075102;28;19908;-72
2024/01/22 06:09:33;;;;;;;;;;;;;;;;;;5092987;28;19947;-72
2024/01/22 06:11:59;;;;;;;;;;;;;;;;;;5089688;28;19912;-71
2024/01/22 06:14:25;;;;;;;;;;;;;;;;;;5092439;28;19908;-71
2024/01/22 06:16:52;;;;;;;;;;;;;;;;;;5092227;28;19908;-70
2024/01/22 06:19:18;;;;;;;;;;;;;;;;;;5092131;28;20272;-69
2024/01/22 06:21:44;;;;;;;;;;;;;;;;;;5093059;28;19912;-67
2024/01/22 06:24:10;;;;;;;;;;;;;;;;;;5093681;28;19923;-68
2024/01/22 06:26:36;;;;;;;;;;;;;;;;;;5093543;28;19920;-67
2024/01/22 06:29:02;;;;;;;;;;;;;;;;;;5085142;28;19973;-67
2024/01/22 06:31:28;;;;;;;;;;;;;;;;;;5086087;28;19916;-67
2024/01/22 06:33:54;;;;;;;;;;;;;;;;;;5093364;28;19927;-69
2024/01/22 06:36:20;;;;;;;;;;;;;;;;;;5074635;28;19927;-68
2024/01/22 06:38:46;;;;;;;;;;;;;;;;;;5087536;28;19920;-68
2024/01/22 06:41:12;;;;;;;;;;;;;;;;;;5092729;28;19919;-67
2024/01/22 06:43:38;;;;;;;;;;;;;;;;;;5093250;28;19947;-67
2024/01/22 06:46:04;;;;;;;;;;;;;;;;;;5092788;28;20399;-69
2024/01/22 06:48:30;;;;;;;;;;;;;;;;;;5092804;28;19912;-69
2024/01/22 06:50:56;;;;;;;;;;;;;;;;;;5094155;28;19930;-67
2024/01/22 06:53:22;;;;;;;;;;;;;;;;;;5072113;28;19957;-67
2024/01/22 06:55:48;;;;;;;;;;;;;;;;;;5060766;28;19920;-67
2024/01/22 06:58:14;;;;;;;;;;;;;;;;;;5093010;28;20439;-66
2024/01/22 07:00:41;;;;;;;;;;;;;;;;;;5091683;28;20356;-68
2024/01/22 07:03:07;;;;;;;;;;;;;;;;;;5091063;28;20355;-68
2024/01/22 07:05:34;;;;;;;;;;;;;;;;;;5071517;28;19999;-67
2024/01/22 07:08:00;;;;;;;;;;;;;;;;;;5091825;28;19912;-68
2024/01/22 07:10:26;;;;;;;;;;;;;;;;;;5090222;28;20439;-68
2024/01/22 07:12:52;;;;;;;;;;;;;;;;;;5082739;28;19916;-67
2024/01/22 07:15:18;;;;;;;;;;;;;;;;;;5075837;28;19989;-70
2024/01/22 07:17:44;;;;;;;;;;;;;;;;;;5076353;28;19916;-67
2024/01/22 07:20:14;;;;;;;;;;;;;;;;;;5083089;28;20356;-66
2024/01/22 07:22:40;;;;;;;;;;;;;;;;;;5082683;28;19912;-68
2024/01/22 07:25:06;;;;;;;;;;;;;;;;;;5062735;28;19920;-66
2024/01/22 07:27:32;;;;;;;;;;;;;;;;;;5070858;28;19915;-64
2024/01/22 07:29:58;;;;;;;;;;;;;;;;;;5090652;28;19908;-68
2024/01/22 07:32:26;;;;;;;;;;;;;;;;;;5087078;28;19923;-67
2024/01/22 07:34:52;;;;;;;;;;;;;;;;;;5082955;28;19919;-67
2024/01/22 07:37:18;;;;;;;;;;;;;;;;;;5088158;28;19995;-67
2024/01/22 07:39:44;;;;;;;;;;;;;;;;;;5089623;28;19999;-67
2024/01/22 07:42:10;;;;;;;;;;;;;;;;;;5082542;28;19920;-68
2024/01/22 07:44:36;;;;;;;;;;;;;;;;;;5091413;28;20007;-69
2024/01/22 07:47:02;;;;;;;;;;;;;;;;;;5082527;28;20306;-69
2024/01/22 07:49:28;;;;;;;;;;;;;;;;;;5084942;28;19916;-69
2024/01/22 07:51:54;;;;;;;;;;;;;;;;;;5067061;28;19961;-68
2024/01/22 07:54:20;;;;;;;;;;;;;;;;;;5091496;28;19915;-68
2024/01/22 07:56:47;;;;;;;;;;;;;;;;;;5094164;28;19919;-68
2024/01/22 07:59:13;;;;;;;;;;;;;;;;;;5087637;28;19977;-68
2024/01/22 08:01:39;;;;;;;;;;;;;;;;;;5086413;28;19975;-66
2024/01/22 08:04:05;;;;;;;;;;;;;;;;;;5089598;28;19924;-68
2024/01/22 08:06:31;;;;;;;;;;;;;;;;;;5090234;28;20322;-67
2024/01/22 08:08:58;;;;;;;;;;;;;;;;;;5092141;28;19912;-67
2024/01/22 08:11:24;;;;;;;;;;;;;;;;;;5092086;28;19916;-68
2024/01/22 08:13:50;;;;;;;;;;;;;;;;;;5090834;28;20003;-66
2024/01/22 08:16:16;;;;;;;;;;;;;;;;;;5092246;28;19912;-65
2024/01/22 08:18:42;;;;;;;;;;;;;;;;;;5077417;28;19912;-66
2024/01/22 08:21:08;;;;;;;;;;;;;;;;;;5088384;28;19970;-64
2024/01/22 08:23:34;;;;;;;;;;;;;;;;;;5090811;28;20364;-66
2024/01/22 08:26:00;;;;;;;;;;;;;;;;;;5089707;28;20011;-67
2024/01/22 08:28:26;;;;;;;;;;;;;;;;;;5091421;28;19908;-67
2024/01/22 08:30:54;;;;;;;;;;;;;;;;;;5091652;28;19922;-66
2024/01/22 08:33:20;;;;;;;;;;;;;;;;;;5096205;28;19955;-66
2024/01/22 08:35:46;;;;;;;;;;;;;;;;;;5091961;28;19947;-67
2024/01/22 08:38:12;;;;;;;;;;;;;;;;;;5086714;28;20425;-68
2024/01/22 08:40:38;;;;;;;;;;;;;;;;;;5091654;28;20090;-68
2024/01/22 08:43:04;;;;;;;;;;;;;;;;;;5090355;28;20439;-67
2024/01/22 08:45:30;;;;;;;;;;;;;;;;;;5087116;28;20225;-68
2024/01/22 08:47:56;;;;;;;;;;;;;;;;;;5082919;28;19913;-69
2024/01/22 08:50:22;;;;;;;;;;;;;;;;;;5082656;28;19912;-66
2024/01/22 08:52:48;;;;;;;;;;;;;;;;;;5091183;28;19912;-70
2024/01/22 08:55:16;;;;;;;;;;;;;;;;;;5084941;28;19915;-68
2024/01/22 08:57:42;;;;;;;;;;;;;;;;;;5072249;28;20566;-67
2024/01/22 09:00:10;;;;;;;;;;;;;;;;;;5089224;28;19912;-68
2024/01/22 09:02:36;;;;;;;;;;;;;;;;;;5087262;28;19990;-68
2024/01/22 09:05:03;;;;;;;;;;;;;;;;;;5062564;28;20017;-67
2024/01/22 09:07:29;;;;;;;;;;;;;;;;;;5089430;28;19916;-68
2024/01/22 09:09:56;;;;;;;;;;;;;;;;;;5088699;28;19916;-68
2024/01/22 09:12:22;;;;;;;;;;;;;;;;;;5090337;28;21091;-67
2024/01/22 09:14:48;;;;;;;;;;;;;;;;;;5091196;28;19915;-67
2024/01/22 09:17:15;;;;;;;;;;;;;;;;;;5072703;28;20646;-70
2024/01/22 09:19:40;;;;;;;;;;;;;;;;;;5092200;28;19912;-70
2024/01/22 09:22:06;;;;;;;;;;;;;;;;;;5073125;28;19919;-69
2024/01/22 09:24:32;;;;;;;;;;;;;;;;;;5092142;28;19969;-68
2024/01/22 09:26:58;;;;;;;;;;;;;;;;;;5091950;28;19951;-68
2024/01/22 09:29:24;;;;;;;;;;;;;;;;;;5092327;28;19965;-67
2024/01/22 09:31:50;;;;;;;;;;;;;;;;;;5092233;28;19983;-69
2024/01/22 09:34:16;;;;;;;;;;;;;;;;;;5088897;28;19959;-68
2024/01/22 09:36:42;;;;;;;;;;;;;;;;;;5093669;28;19916;-68
2024/01/22 09:39:08;;;;;;;;;;;;;;;;;;5088205;28;20003;-69
2024/01/22 09:41:34;;;;;;;;;;;;;;;;;;5087728;28;19923;-69
2024/01/22 09:44:00;;;;;;;;;;;;;;;;;;5090876;28;19956;-71
2024/01/22 09:46:27;;;;;;;;;;;;;;;;;;5091615;28;19923;-70
2024/01/22 09:48:53;;;;;;;;;;;;;;;;;;5086853;28;19916;-70
2024/01/22 09:51:19;;;;;;;;;;;;;;;;;;5090782;28;19957;-71
2024/01/22 09:53:45;;;;;;;;;;;;;;;;;;5089825;28;19916;-69
2024/01/22 09:56:11;;;;;;;;;;;;;;;;;;5088332;28;19943;-69
2024/01/22 09:58:37;;;;;;;;;;;;;;;;;;5089260;28;19912;-69
2024/01/22 10:01:04;;;;;;;;;;;;;;;;;;5087163;28;19938;-68
2024/01/22 10:03:32;;;;;;;;;;;;;;;;;;5087769;28;19924;-66
2024/01/22 10:05:58;;;;;;;;;;;;;;;;;;5070800;28;19924;-68
2024/01/22 10:08:24;;;;;;;;;;;;;;;;;;5063384;28;20485;-67
2024/01/22 10:10:50;;;;;;;;;;;;;;;;;;5077799;28;20254;-69
2024/01/22 10:13:17;;;;;;;;;;;;;;;;;;5088146;28;20904;-68
2024/01/22 10:15:47;;;;;;;;;;;;;;;;;;5090546;28;19964;-67
2024/01/22 10:18:13;;;;;;;;;;;;;;;;;;5067966;28;20515;-66
2024/01/22 10:20:39;;;;;;;;;;;;;;;;;;5084348;28;19916;-67
2024/01/22 10:23:05;;;;;;;;;;;;;;;;;;5090641;28;19913;-67
2024/01/22 10:25:31;;;;;;;;;;;;;;;;;;5092105;28;19931;-66
2024/01/22 10:27:57;;;;;;;;;;;;;;;;;;5072751;28;19931;-67
2024/01/22 10:30:24;;;;;;;;;;;;;;;;;;5091508;28;19912;-68
2024/01/22 10:32:50;;;;;;;;;;;;;;;;;;5074356;28;19916;-68
2024/01/22 10:35:16;;;;;;;;;;;;;;;;;;5086136;28;20299;-66
2024/01/22 10:37:42;;;;;;;;;;;;;;;;;;5083314;28;20257;-68
2024/01/22 10:40:10;;;;;;;;;;;;;;;;;;5090978;28;20351;-68
2024/01/22 10:42:36;;;;;;;;;;;;;;;;;;5074242;28;20010;-68
2024/01/22 10:45:02;;;;;;;;;;;;;;;;;;5092853;28;19916;-68
2024/01/22 10:47:29;;;;;;;;;;;;;;;;;;5084920;28;19978;-67
2024/01/22 10:49:55;;;;;;;;;;;;;;;;;;5092064;28;19912;-70
2024/01/22 10:52:21;;;;;;;;;;;;;;;;;;5091505;28;19912;-69
2024/01/22 10:54:47;;;;;;;;;;;;;;;;;;5092163;28;20375;-68
2024/01/22 10:57:14;;;;;;;;;;;;;;;;;;5090843;28;20288;-67
2024/01/22 10:59:41;;;;;;;;;;;;;;;;;;5090520;28;19946;-68
2024/01/22 11:02:07;;;;;;;;;;;;;;;;;;5089749;28;19924;-69
2024/01/22 11:04:34;;;;;;;;;;;;;;;;;;5091595;28;19971;-70
2024/01/22 11:07:00;;;;;;;;;;;;;;;;;;5091527;28;19954;-68
2024/01/22 11:09:26;;;;;;;;;;;;;;;;;;5076100;28;20002;-67
2024/01/22 11:11:52;;;;;;;;;;;;;;;;;;5083953;28;19912;-69
2024/01/22 11:14:18;;;;;;;;;;;;;;;;;;5088702;28;19912;-69
2024/01/22 11:16:44;;;;;;;;;;;;;;;;;;5088866;28;19923;-69
2024/01/22 11:19:10;;;;;;;;;;;;;;;;;;5086921;28;19922;-68
2024/01/22 11:21:39;;;;;;;;;;;;;;;;;;5085153;28;19915;-68
2024/01/22 11:24:05;;;;;;;;;;;;;;;;;;5087137;28;20268;-68
2024/01/22 11:26:31;;;;;;;;;;;;;;;;;;5085513;28;19956;-69
2024/01/22 11:28:57;;;;;;;;;;;;;;;;;;5089275;28;20363;-69
2024/01/22 11:31:23;;;;;;;;;;;;;;;;;;5067238;28;20519;-67
2024/01/22 11:33:53;;;;;;;;;;;;;;;;;;5088389;28;19916;-70
2024/01/22 11:36:19;;;;;;;;;;;;;;;;;;5090847;28;19981;-69
2024/01/22 11:38:45;;;;;;;;;;;;;;;;;;5091145;28;20332;-68
2024/01/22 11:41:11;;;;;;;;;;;;;;;;;;5090441;28;19912;-68
2024/01/22 11:43:37;;;;;;;;;;;;;;;;;;5087033;28;19909;-69
2024/01/22 11:46:03;;;;;;;;;;;;;;;;;;5072491;28;20364;-69
2024/01/22 11:48:29;;;;;;;;;;;;;;;;;;5091185;28;19922;-68
2024/01/22 11:50:54;;;;;;;;;;;;;;;;;;5091421;28;19916;-69
2024/01/22 11:53:20;;;;;;;;;;;;;;;;;;5089729;28;19919;-68
2024/01/22 11:55:46;;;;;;;;;;;;;;;;;;5091994;28;20438;-69
2024/01/22 11:58:12;;;;;;;;;;;;;;;;;;5103986;28;19912;-72
2024/01/22 12:00:38;;;;;;;;;;;;;;;;;;5090091;28;20003;-68
2024/01/22 12:03:04;;;;;;;;;;;;;;;;;;5089134;28;19924;-67
2024/01/22 12:05:30;;;;;;;;;;;;;;;;;;5080305;28;19974;-67
2024/01/22 12:07:56;;;;;;;;;;;;;;;;;;5093278;28;19946;-69
2024/01/22 12:10:22;;;;;;;;;;;;;;;;;;5090730;28;19992;-69
2024/01/22 12:12:48;;;;;;;;;;;;;;;;;;5069632;28;19976;-69
2024/01/22 12:15:14;;;;;;;;;;;;;;;;;;5090946;28;19920;-68
2024/01/22 12:17:40;;;;;;;;;;;;;;;;;;5096221;28;19908;-69
2024/01/22 12:20:06;;;;;;;;;;;;;;;;;;5092430;28;19912;-70
2024/01/22 12:22:32;;;;;;;;;;;;;;;;;;5074629;28;19908;-68
2024/01/22 12:24:58;;;;;;;;;;;;;;;;;;5092709;28;19920;-67
2024/01/22 12:27:24;;;;;;;;;;;;;;;;;;5092455;28;19986;-67
2024/01/22 12:29:50;;;;;;;;;;;;;;;;;;5078629;28;19912;-67
2024/01/22 12:32:16;;;;;;;;;;;;;;;;;;5076166;28;19908;-67
2024/01/22 12:34:42;;;;;;;;;;;;;;;;;;5090551;28;20023;-68
2024/01/22 12:37:08;;;;;;;;;;;;;;;;;;5096585;28;20066;-68
2024/01/22 12:39:34;;;;;;;;;;;;;;;;;;5092648;28;19924;-70
2024/01/22 12:42:00;;;;;;;;;;;;;;;;;;5075770;28;20002;-68
2024/01/22 12:44:26;;;;;;;;;;;;;;;;;;5089321;28;20101;-68
2024/01/22 12:46:52;;;;;;;;;;;;;;;;;;5094886;28;19912;-69
2024/01/22 12:49:18;;;;;;;;;;;;;;;;;;5094370;28;19912;-68
2024/01/22 12:51:44;;;;;;;;;;;;;;;;;;5076711;28;19915;-67
2024/01/22 12:54:10;;;;;;;;;;;;;;;;;;5077117;28;19912;-67
2024/01/22 12:56:36;;;;;;;;;;;;;;;;;;5094716;28;20348;-67
2024/01/22 12:59:02;;;;;;;;;;;;;;;;;;5095145;28;19912;-66
2024/01/22 13:01:28;;;;;;;;;;;;;;;;;;5094768;28;20007;-67
2024/01/22 13:03:56;;;;;;;;;;;;;;;;;;5078346;28;20356;-68
2024/01/22 13:08:42;;;;;;;;;;;;;;;;;;5119972;27;19916;-68
2024/01/22 13:11:08;;;;;;;;;;;;;;;;;;5104785;28;20002;-66
2024/01/22 13:18:09;;;;;;;;;;;;;;;;;;5171395;27;19915;-68
2024/01/22 13:22:57;;;;;;;;;;;;;;;;;;5089421;27;19920;-68
2024/01/22 13:25:23;;;;;;;;;;;;;;;;;;5089718;28;20369;-66
2024/01/22 13:27:54;;;;;;;;;;;;;;;;;;5089801;28;20007;-66
2024/01/22 13:30:20;;;;;;;;;;;;;;;;;;5088347;28;19920;-67
2024/01/22 13:32:47;;;;;;;;;;;;;;;;;;5089450;28;20416;-67
2024/01/22 13:35:13;;;;;;;;;;;;;;;;;;5088373;28;19912;-68
2024/01/22 13:38:20;;;;;;;;;;;;;;;;;;5136998;27;19924;-67
2024/01/22 13:40:46;;;;;;;;;;;;;;;;;;5129570;28;20015;-67
2024/01/22 13:46:56;;;;;;;;;;;;;;;;;;5088761;27;19912;-70
2024/01/22 13:49:23;;;;;;;;;;;;;;;;;;5088729;28;19935;-68
2024/01/22 13:54:02;;;;;;;;;;;;;;;;;;5088917;27;19920;-69
2024/01/22 14:05:16;;;;;;;;;;;;;;;;;;5088457;27;19920;-67
2024/01/22 14:08:37;;;;;;;;;;;;;;;;;;5089066;28;20586;-67
2024/01/22 14:12:11;;;;;;;;;;;;;;;;;;5088046;27;19924;-71
2024/01/22 14:18:11;;;;;;;;;;;;;;;;;;5089098;27;19913;-71
2024/01/22 14:23:58;;;;;;;;;;;;;;;;;;5090737;27;20283;-70
2024/01/22 14:27:55;;;;;;;;;;;;;;;;;;5090841;27;19919;-70
2024/01/22 14:30:21;;;;;;;;;;;;;;;;;;5090092;28;20347;-70
2024/01/22 14:32:47;;;;;;;;;;;;;;;;;;5091217;28;19962;-70
2024/01/22 14:37:08;;;;;;;;;;;;;;;;;;5091488;27;19916;-71
2024/01/22 14:39:34;;;;;;;;;;;;;;;;;;5091397;28;20010;-71
2024/01/22 14:42:00;;;;;;;;;;;;;;;;;;5089560;28;19962;-71
2024/01/22 14:44:26;;;;;;;;;;;;;;;;;;5091207;28;19916;-71
2024/01/22 14:46:52;;;;;;;;;;;;;;;;;;5091159;28;19915;-71
2024/01/22 14:50:55;;;;;;;;;;;;;;;;;;5091405;27;20300;-70
2024/01/22 14:53:20;;;;;;;;;;;;;;;;;;5091782;28;20007;-70
2024/01/22 14:56:38;;;;;;;;;;;;;;;;;;5153100;27;19994;-70
2024/01/22 14:59:52;;;;;;;;;;;;;;;;;;5091513;27;19922;-70
2024/01/22 15:02:21;;;;;;;;;;;;;;;;;;5090961;28;19919;-70
2024/01/22 15:04:47;;;;;;;;;;;;;;;;;;5091314;28;19916;-71
2024/01/22 15:07:12;;;;;;;;;;;;;;;;;;5091284;28;19908;-72
2024/01/22 15:09:38;;;;;;;;;;;;;;;;;;5090760;28;19930;-70
2024/01/22 15:12:04;;;;;;;;;;;;;;;;;;5091252;28;19908;-72
2024/01/22 15:14:31;;;;;;;;;;;;;;;;;;5091329;28;20006;-71
2024/01/22 15:17:01;;;;;;;;;;;;;;;;;;5090837;28;19915;-71
2024/01/22 15:19:27;;;;;;;;;;;;;;;;;;5091019;28;20038;-70
2024/01/22 15:21:53;;;;;;;;;;;;;;;;;;5089695;28;19944;-71
2024/01/22 15:24:20;;;;;;;;;;;;;;;;;;5090528;28;19977;-71
2024/01/22 15:26:46;;;;;;;;;;;;;;;;;;5090911;28;19908;-71
2024/01/22 15:29:12;;;;;;;;;;;;;;;;;;5091346;28;19912;-73
2024/01/22 15:31:39;;;;;;;;;;;;;;;;;;5090394;28;19916;-70
2024/01/22 15:34:04;;;;;;;;;;;;;;;;;;5091099;28;19912;-71
2024/01/22 15:36:30;;;;;;;;;;;;;;;;;;5090297;28;20092;-70
2024/01/22 15:38:56;;;;;;;;;;;;;;;;;;5089383;28;19924;-71
2024/01/22 15:41:22;;;;;;;;;;;;;;;;;;5090592;28;19912;-71
2024/01/22 15:43:48;;;;;;;;;;;;;;;;;;5090164;28;19998;-72
2024/01/22 15:46:14;;;;;;;;;;;;;;;;;;5090656;28;19951;-72
2024/01/22 15:48:40;;;;;;;;;;;;;;;;;;5090516;28;19959;-71
2024/01/22 15:51:06;;;;;;;;;;;;;;;;;;5090028;28;20365;-71
2024/01/22 15:53:32;;;;;;;;;;;;;;;;;;5090819;28;20307;-71
2024/01/22 15:55:58;;;;;;;;;;;;;;;;;;5090368;28;19931;-72
2024/01/22 15:58:24;;;;;;;;;;;;;;;;;;5098070;28;19920;-71
2024/01/22 16:00:50;;;;;;;;;;;;;;;;;;5110558;28;19976;-71
2024/01/22 16:03:16;;;;;;;;;;;;;;;;;;5110547;28;19916;-72
2024/01/22 16:05:43;;;;;;;;;;;;;;;;;;5109963;28;19912;-72
2024/01/22 16:08:09;;;;;;;;;;;;;;;;;;5110662;28;19999;-71
2024/01/22 16:10:35;;;;;;;;;;;;;;;;;;5082021;28;19959;-71
2024/01/22 16:13:01;;;;;;;;;;;;;;;;;;5096368;28;19970;-71
2024/01/22 16:15:27;;;;;;;;;;;;;;;;;;5096713;28;19908;-71
2024/01/22 16:17:54;;;;;;;;;;;;;;;;;;5096659;28;19919;-72
2024/01/22 16:20:20;;;;;;;;;;;;;;;;;;5096189;28;20003;-70
2024/01/22 16:22:46;;;;;;;;;;;;;;;;;;5078287;28;19966;-71
2024/01/22 16:25:11;;;;;;;;;;;;;;;;;;5096517;28;19912;-71
2024/01/22 16:27:38;;;;;;;;;;;;;;;;;;5096176;28;20345;-70
2024/01/22 16:30:04;;;;;;;;;;;;;;;;;;5096348;28;19947;-70
2024/01/22 16:32:30;;;;;;;;;;;;;;;;;;5096388;28;19909;-70
2024/01/22 16:34:56;;;;;;;;;;;;;;;;;;5096052;28;19926;-69
2024/01/22 16:37:22;;;;;;;;;;;;;;;;;;5096357;28;19912;-69
2024/01/22 16:39:49;;;;;;;;;;;;;;;;;;5095903;28;19916;-70
2024/01/22 16:42:15;;;;;;;;;;;;;;;;;;5096298;28;19908;-70
2024/01/22 16:44:41;;;;;;;;;;;;;;;;;;5096222;28;20378;-70
2024/01/22 16:47:07;;;;;;;;;;;;;;;;;;5095823;28;19908;-70
2024/01/22 16:49:33;;;;;;;;;;;;;;;;;;5096081;28;19961;-70
2024/01/22 16:51:59;;;;;;;;;;;;;;;;;;5095967;28;19915;-70
2024/01/22 16:54:25;;;;;;;;;;;;;;;;;;5095551;28;19991;-70
2024/01/22 16:56:51;;;;;;;;;;;;;;;;;;5096093;28;19992;-70
2024/01/22 16:59:17;;;;;;;;;;;;;;;;;;5095646;28;20286;-71
2024/01/22 17:01:43;;;;;;;;;;;;;;;;;;5095459;28;20333;-70
2024/01/22 17:04:09;;;;;;;;;;;;;;;;;;5095750;28;19908;-70
2024/01/22 17:06:35;;;;;;;;;;;;;;;;;;5096052;28;19908;-70
2024/01/22 17:09:02;;;;;;;;;;;;;;;;;;5077156;28;20414;-70
2024/01/22 17:11:28;;;;;;;;;;;;;;;;;;5095695;28;20007;-69
2024/01/22 17:13:54;;;;;;;;;;;;;;;;;;5096240;28;20399;-70
2024/01/22 17:16:20;;;;;;;;;;;;;;;;;;5095146;28;19939;-70
2024/01/22 17:18:46;;;;;;;;;;;;;;;;;;5095356;28;19974;-70